Terminal Aerodrome Forecast
Issued by NWS

Home | Current Version | Previous Version | Text Only | Print | Product List | Glossary On
Versions: 1 2 3 4 5 6 7 8 9 10 11 12 13
000
FTUS44 KTSA 302300
TAFBVO
TAF
KBVO 302323Z 3100/3124 03004KT 5SM -RA BR SCT006 BKN045
      TEMPO 3100/3104 1SM RA BR BKN006
     FM310400 00000KT 3SM -RA BR OVC006
     FM310900 00000KT 4SM BR OVC006
     FM311500 07005KT P6SM BKN015
     FM312000 10004KT P6SM BKN050=

USA.gov is the U.S. government's official web portal to all federal, state and local government web resources and services.